createdAt,value
2022-10-07T00:01:13.254Z,5.70
2022-10-07T00:03:40.955Z,6.13
2022-10-07T00:06:16.426Z,5.78
2022-10-07T00:08:47.218Z,6.82
2022-10-07T00:11:24.567Z,6.00
2022-10-07T00:13:58.862Z,8.55
2022-10-07T00:16:35.097Z,6.22
2022-10-07T00:19:07.751Z,6.00
2022-10-07T00:21:39.873Z,6.72
2022-10-07T00:24:08.504Z,5.80
2022-10-07T00:26:36.744Z,5.95
2022-10-07T00:29:07.433Z,5.68
2022-10-07T00:31:36.995Z,5.43
2022-10-07T00:34:05.266Z,6.03
2022-10-07T00:36:37.034Z,5.85
2022-10-07T00:39:11.129Z,6.63
2022-10-07T00:41:43.915Z,5.97
2022-10-07T00:44:32.391Z,5.70
2022-10-07T00:47:13.675Z,6.43
2022-10-07T00:49:56.597Z,5.22
2022-10-07T00:52:30.287Z,6.35
2022-10-07T00:55:02.342Z,6.38
2022-10-07T00:57:32.158Z,6.00
2022-10-07T01:00:01.103Z,5.00
2022-10-07T01:02:31.887Z,6.25
2022-10-07T01:05:01.781Z,6.10
2022-10-07T01:07:29.337Z,6.03
2022-10-07T01:09:59.596Z,6.30
2022-10-07T01:13:23.526Z,5.40
2022-10-07T01:16:07.838Z,6.13
2022-10-07T01:18:50.166Z,5.70
2022-10-07T01:21:44.110Z,5.45
2022-10-07T01:24:55.147Z,5.65
2022-10-07T01:27:27.089Z,5.25
2022-10-07T01:30:03.675Z,6.13
2022-10-07T01:32:57.159Z,5.97
2022-10-07T01:35:33.574Z,5.78
2022-10-07T01:38:07.949Z,6.60
2022-10-07T01:40:45.493Z,6.00
2022-10-07T01:43:16.305Z,6.38
2022-10-07T01:45:49.111Z,5.65
2022-10-07T01:48:17.103Z,6.00
2022-10-07T01:50:44.785Z,5.15
2022-10-07T01:53:38.677Z,5.70
2022-10-07T01:56:14.719Z,6.00
2022-10-07T01:59:18.641Z,5.40
2022-10-07T02:02:11.273Z,5.57
2022-10-07T02:05:03.389Z,5.40
2022-10-07T02:08:28.406Z,4.85
2022-10-07T02:11:13.197Z,5.97
2022-10-07T02:13:46.101Z,6.13
2022-10-07T02:16:26.203Z,5.63
2022-10-07T02:18:54.318Z,5.93
2022-10-07T02:21:27.664Z,6.57
2022-10-07T02:23:56.727Z,6.65
2022-10-07T02:26:27.543Z,6.10
2022-10-07T02:29:01.641Z,6.30
2022-10-07T02:31:32.733Z,5.60
2022-10-07T02:34:06.800Z,5.40
2022-10-07T02:36:46.932Z,4.60
2022-10-07T02:39:20.340Z,4.90
2022-10-07T02:42:16.469Z,5.05
2022-10-07T02:45:45.378Z,4.80
2022-10-07T02:48:39.293Z,4.93
2022-10-07T02:51:21.055Z,4.47
2022-10-07T02:53:51.819Z,5.18
2022-10-07T02:56:23.040Z,4.28
2022-10-07T02:58:51.120Z,4.50
2022-10-07T03:01:30.794Z,4.07
2022-10-07T03:03:58.496Z,4.30
2022-10-07T03:06:31.837Z,4.00
2022-10-07T03:09:00.489Z,4.57
2022-10-07T03:11:27.592Z,4.80
2022-10-07T03:13:58.464Z,4.72
2022-10-07T03:16:26.077Z,4.60
2022-10-07T03:18:54.225Z,5.93
2022-10-07T03:21:22.174Z,5.18
2022-10-07T03:23:54.049Z,5.55
2022-10-07T03:26:22.189Z,6.10
2022-10-07T03:28:49.306Z,5.10
2022-10-07T03:31:16.497Z,4.47
2022-10-07T03:33:46.410Z,5.20
2022-10-07T03:36:13.807Z,5.15
2022-10-07T03:38:40.879Z,5.38
2022-10-07T03:41:08.113Z,4.90
2022-10-07T03:43:35.649Z,4.90
2022-10-07T03:46:02.948Z,4.80
2022-10-07T03:48:31.299Z,5.57
2022-10-07T03:50:59.297Z,5.18
2022-10-07T03:53:30.020Z,5.30
2022-10-07T03:55:57.807Z,5.30
2022-10-07T03:58:25.839Z,5.20
2022-10-07T04:01:08.741Z,5.40
2022-10-07T04:03:35.817Z,5.43
2022-10-07T04:06:03.855Z,5.70
2022-10-07T04:08:33.098Z,5.60
2022-10-07T04:11:02.081Z,5.95
2022-10-07T04:13:30.045Z,6.50
2022-10-07T04:16:10.396Z,6.10
2022-10-07T04:18:37.766Z,5.65
2022-10-07T04:21:12.102Z,5.82
2022-10-07T04:23:42.287Z,6.13
2022-10-07T04:26:13.309Z,5.70
2022-10-07T04:28:41.179Z,5.50
2022-10-07T04:31:10.745Z,6.13
2022-10-07T04:33:42.239Z,5.75
2022-10-07T04:36:12.987Z,5.55
2022-10-07T04:38:42.592Z,5.28
2022-10-07T04:41:09.685Z,5.55
2022-10-07T04:43:36.837Z,5.75
2022-10-07T04:46:10.902Z,5.70
2022-10-07T04:48:38.074Z,6.15
2022-10-07T04:51:08.643Z,8.75
2022-10-07T04:53:40.052Z,8.13
2022-10-07T04:56:08.176Z,8.50
2022-10-07T04:58:36.758Z,9.50
2022-10-07T05:01:09.993Z,9.77
2022-10-07T05:03:39.463Z,8.48
2022-10-07T05:06:07.313Z,8.18
2022-10-07T05:08:34.451Z,8.95
2022-10-07T05:11:02.761Z,8.55
2022-10-07T05:13:31.290Z,9.45
2022-10-07T05:16:05.080Z,8.38
2022-10-07T05:18:34.290Z,9.02
2022-10-07T05:21:07.154Z,8.65
2022-10-07T05:23:36.839Z,9.43
2022-10-07T05:26:09.619Z,9.45
2022-10-07T05:28:41.209Z,10.02
2022-10-07T05:31:13.846Z,10.23
2022-10-07T05:33:42.864Z,10.05
2022-10-07T05:36:12.211Z,11.00
2022-10-07T05:38:39.468Z,12.50
2022-10-07T05:41:11.252Z,10.32
2022-10-07T05:43:43.110Z,10.25
2022-10-07T05:46:16.604Z,10.55
2022-10-07T05:48:49.596Z,10.60
2022-10-07T05:51:17.425Z,11.52
2022-10-07T05:53:48.503Z,10.50
2022-10-07T05:56:22.945Z,10.15
2022-10-07T05:58:52.644Z,9.75
2022-10-07T06:01:24.541Z,10.25
2022-10-07T06:03:57.418Z,8.98
2022-10-07T06:06:26.316Z,10.18
2022-10-07T06:08:53.829Z,8.63
2022-10-07T06:11:40.222Z,8.15
2022-10-07T06:16:34.479Z,8.70
2022-10-07T06:19:22.808Z,7.65
2022-10-07T06:21:50.676Z,7.68
2022-10-07T06:24:18.014Z,8.45
2022-10-07T06:26:51.274Z,8.32
2022-10-07T06:29:22.424Z,9.23
2022-10-07T06:31:49.724Z,9.07
2022-10-07T06:34:18.205Z,8.93
2022-10-07T06:36:48.472Z,8.18
2022-10-07T06:39:17.948Z,9.77
2022-10-07T06:41:48.147Z,9.18
2022-10-07T06:44:15.421Z,9.07
2022-10-07T06:46:45.997Z,8.77
2022-10-07T06:49:13.136Z,10.20
2022-10-07T06:51:40.279Z,10.75
2022-10-07T06:54:13.037Z,9.50
2022-10-07T06:56:40.474Z,10.60
2022-10-07T06:59:07.868Z,12.27
2022-10-07T07:01:35.559Z,11.60
2022-10-07T07:04:02.845Z,11.68
2022-10-07T07:06:37.135Z,15.43
2022-10-07T07:09:05.387Z,14.02
2022-10-07T07:11:41.054Z,14.25
2022-10-07T07:14:11.525Z,14.07
2022-10-07T07:16:39.965Z,14.98
2022-10-07T07:19:10.870Z,17.88
2022-10-07T07:21:38.372Z,14.73
2022-10-07T07:24:09.170Z,17.42
2022-10-07T07:26:37.838Z,18.13
2022-10-07T07:29:06.559Z,18.38
2022-10-07T07:31:36.544Z,18.50
2022-10-07T07:34:13.154Z,18.65
2022-10-07T07:36:53.484Z,18.55
2022-10-07T07:39:21.014Z,17.17
2022-10-07T07:41:50.824Z,17.15
2022-10-07T07:44:19.256Z,18.27
2022-10-07T07:46:51.198Z,17.63
2022-10-07T07:49:23.546Z,16.92
2022-10-07T07:51:51.184Z,16.63
2022-10-07T07:54:19.044Z,17.15
2022-10-07T07:56:49.325Z,16.88
2022-10-07T07:59:17.066Z,16.58
2022-10-07T08:01:45.395Z,17.23
2022-10-07T08:04:13.841Z,17.95
2022-10-07T08:06:44.616Z,18.13
2022-10-07T08:09:13.033Z,15.75
2022-10-07T08:11:45.219Z,16.85
2022-10-07T08:14:14.089Z,16.38
2022-10-07T08:16:44.987Z,15.77
2022-10-07T08:19:12.535Z,14.98
2022-10-07T08:21:39.783Z,16.52
2022-10-07T08:24:08.388Z,17.30
2022-10-07T08:26:38.104Z,17.08
2022-10-07T08:29:08.263Z,16.33
2022-10-07T08:31:35.922Z,18.70
2022-10-07T08:34:06.371Z,19.10
2022-10-07T08:36:34.456Z,19.13
2022-10-07T08:39:05.587Z,20.23
2022-10-07T08:41:52.665Z,20.58
2022-10-07T08:44:47.678Z,20.35
2022-10-07T08:47:38.603Z,19.48
2022-10-07T08:50:46.621Z,19.63
2022-10-07T08:53:23.635Z,20.77
2022-10-07T08:56:01.824Z,20.25
2022-10-07T08:58:35.220Z,18.67
2022-10-07T09:01:32.952Z,19.27
2022-10-07T09:04:10.619Z,17.52
2022-10-07T09:06:52.069Z,16.90
2022-10-07T09:09:40.602Z,17.77
2022-10-07T09:12:19.172Z,18.70
2022-10-07T09:14:48.149Z,17.52
2022-10-07T09:17:34.885Z,16.55
2022-10-07T09:20:15.260Z,16.58
2022-10-07T09:22:53.383Z,16.35
2022-10-07T09:25:30.339Z,16.67
2022-10-07T09:27:58.168Z,16.27
2022-10-07T09:30:28.003Z,16.10
2022-10-07T09:32:57.097Z,16.25
2022-10-07T09:35:34.029Z,14.77
2022-10-07T09:38:09.965Z,14.20
2022-10-07T09:41:07.624Z,15.20
2022-10-07T09:43:36.004Z,14.02
2022-10-07T09:46:03.535Z,13.73
2022-10-07T09:48:34.770Z,13.85
2022-10-07T09:51:25.473Z,13.65
2022-10-07T09:54:18.632Z,13.23
2022-10-07T09:56:47.537Z,13.77
2022-10-07T09:59:22.927Z,12.70
2022-10-07T10:02:13.561Z,13.20
2022-10-07T10:04:57.377Z,14.27
2022-10-07T10:07:29.226Z,14.98
2022-10-07T10:10:03.537Z,16.67
2022-10-07T10:12:42.694Z,16.42
2022-10-07T10:15:22.970Z,15.75
2022-10-07T10:17:57.058Z,15.88
2022-10-07T10:20:44.705Z,14.82
2022-10-07T10:23:36.965Z,14.02
2022-10-07T10:26:33.681Z,14.57
2022-10-07T10:29:39.602Z,12.77
2022-10-07T10:32:28.266Z,12.10
2022-10-07T10:35:31.458Z,10.80
2022-10-07T10:38:29.600Z,9.45
2022-10-07T10:41:02.124Z,8.48
2022-10-07T10:44:04.940Z,8.95
2022-10-07T10:46:52.034Z,6.97
2022-10-07T10:49:30.304Z,7.70
2022-10-07T10:52:21.661Z,9.30
2022-10-07T10:55:14.186Z,7.25
2022-10-07T10:58:05.385Z,7.60
2022-10-07T11:00:57.619Z,7.13
2022-10-07T11:04:05.033Z,7.72
2022-10-07T11:06:38.654Z,7.60
2022-10-07T11:09:14.881Z,7.25
2022-10-07T11:11:44.903Z,8.68
2022-10-07T11:14:20.212Z,7.28
2022-10-07T11:16:57.716Z,8.27
2022-10-07T11:19:39.722Z,7.90
2022-10-07T11:22:17.571Z,7.13
2022-10-07T11:24:50.964Z,6.35
2022-10-07T11:27:28.706Z,7.10
2022-10-07T11:30:19.269Z,6.80
2022-10-07T11:33:13.458Z,6.25
2022-10-07T11:35:59.386Z,6.32
2022-10-07T11:38:34.207Z,5.43
2022-10-07T11:41:20.481Z,6.20
2022-10-07T11:43:53.286Z,6.18
2022-10-07T11:46:48.879Z,6.20
2022-10-07T11:49:41.271Z,6.43
2022-10-07T11:52:21.997Z,6.15
2022-10-07T11:55:07.374Z,6.32
2022-10-07T11:57:38.443Z,5.97
2022-10-07T12:00:23.171Z,6.45
2022-10-07T12:02:51.245Z,5.53
2022-10-07T12:05:36.736Z,6.15
2022-10-07T12:08:53.190Z,5.43
2022-10-07T12:11:22.657Z,6.07
2022-10-07T12:13:54.502Z,5.70
2022-10-07T12:16:28.135Z,5.47
2022-10-07T12:19:07.543Z,5.28
2022-10-07T12:22:03.078Z,5.50
2022-10-07T12:24:37.796Z,5.37
2022-10-07T12:27:29.392Z,5.43
2022-10-07T12:29:58.988Z,4.85
2022-10-07T12:32:48.155Z,4.93
2022-10-07T12:35:33.410Z,4.20
2022-10-07T12:38:30.252Z,3.55
2022-10-07T12:41:40.083Z,3.47
2022-10-07T12:44:40.965Z,4.20
2022-10-07T12:47:17.585Z,3.78
2022-10-07T12:50:02.881Z,3.38
2022-10-07T12:52:36.284Z,3.47
2022-10-07T12:55:20.904Z,4.30
2022-10-07T12:57:54.460Z,4.28
2022-10-07T13:00:24.900Z,3.92
2022-10-07T13:03:29.097Z,4.50
2022-10-07T13:06:13.971Z,4.13
2022-10-07T13:09:14.580Z,3.95
2022-10-07T13:12:13.012Z,3.45
2022-10-07T13:15:13.518Z,3.70
2022-10-07T13:17:46.959Z,3.35
2022-10-07T13:20:33.304Z,3.55
2022-10-07T13:23:26.089Z,4.35
2022-10-07T13:25:58.576Z,3.38
2022-10-07T13:28:38.090Z,3.03
2022-10-07T13:31:25.793Z,3.30
2022-10-07T13:33:59.282Z,3.30
2022-10-07T13:36:34.827Z,3.47
2022-10-07T13:39:22.942Z,3.53
2022-10-07T13:41:57.067Z,3.80
2022-10-07T13:44:30.483Z,3.60
2022-10-07T13:47:06.013Z,3.42
2022-10-07T13:49:43.545Z,3.42
2022-10-07T13:52:31.837Z,3.55
2022-10-07T13:55:02.131Z,3.70
2022-10-07T13:57:31.442Z,3.80
2022-10-07T14:00:00.066Z,3.72
2022-10-07T14:02:28.330Z,3.70
2022-10-07T14:05:13.996Z,4.00
2022-10-07T14:07:42.501Z,3.65
2022-10-07T14:10:11.125Z,3.75
2022-10-07T14:12:48.828Z,3.63
2022-10-07T14:15:29.455Z,3.42
2022-10-07T14:18:06.525Z,3.72
2022-10-07T14:20:45.302Z,4.10
2022-10-07T14:23:33.888Z,4.05
2022-10-07T14:26:14.348Z,3.72
2022-10-07T14:28:43.148Z,3.50
2022-10-07T14:31:38.900Z,3.88
2022-10-07T14:34:37.008Z,3.50
2022-10-07T14:37:26.227Z,3.20
2022-10-07T14:39:56.764Z,3.65
2022-10-07T14:42:33.492Z,3.10
2022-10-07T14:45:04.925Z,3.40
2022-10-07T14:47:32.508Z,3.50
2022-10-07T14:50:01.343Z,3.25
2022-10-07T14:52:35.442Z,3.63
2022-10-07T14:55:16.134Z,3.40
2022-10-07T14:57:44.418Z,3.38
2022-10-07T15:00:20.166Z,3.38
2022-10-07T15:02:50.241Z,3.42
2022-10-07T15:05:19.143Z,4.00
2022-10-07T15:07:46.582Z,3.80
2022-10-07T15:10:26.317Z,4.13
2022-10-07T15:12:56.016Z,4.10
2022-10-07T15:15:23.181Z,4.20
2022-10-07T15:17:50.357Z,3.92
2022-10-07T15:20:21.340Z,3.70
2022-10-07T15:22:50.328Z,4.10
2022-10-07T15:25:18.104Z,4.18
2022-10-07T15:27:45.527Z,3.50
2022-10-07T15:30:13.448Z,3.83
2022-10-07T15:32:40.703Z,4.32
2022-10-07T15:35:08.577Z,4.28
2022-10-07T15:37:35.738Z,4.03
2022-10-07T15:40:03.112Z,4.95
2022-10-07T15:42:30.527Z,4.22
2022-10-07T15:45:00.752Z,4.30
2022-10-07T15:47:28.224Z,4.15
2022-10-07T15:49:58.117Z,4.30
2022-10-07T15:52:26.231Z,4.93
2022-10-07T15:54:53.461Z,4.38
2022-10-07T15:57:24.228Z,3.75
2022-10-07T15:59:54.680Z,4.70
2022-10-07T16:02:22.518Z,4.50
2022-10-07T16:04:53.102Z,4.20
2022-10-07T16:07:20.328Z,4.80
2022-10-07T16:09:47.482Z,7.15
2022-10-07T16:12:14.656Z,5.93
2022-10-07T16:14:41.892Z,6.80
2022-10-07T16:17:09.424Z,8.65
2022-10-07T16:19:36.516Z,5.20
2022-10-07T16:22:03.784Z,5.20
2022-10-07T16:24:35.278Z,4.80
2022-10-07T16:27:03.088Z,4.70
2022-10-07T16:29:51.927Z,4.50
2022-10-07T16:34:47.013Z,4.72
2022-10-07T16:37:15.479Z,4.57
2022-10-07T16:39:43.055Z,4.60
2022-10-07T16:42:16.350Z,4.65
2022-10-07T16:44:47.276Z,4.97
2022-10-07T16:47:17.026Z,4.65
2022-10-07T16:49:44.220Z,4.80
2022-10-07T16:52:11.378Z,4.28
2022-10-07T16:54:39.839Z,4.65
2022-10-07T16:57:06.902Z,4.82
2022-10-07T16:59:34.450Z,5.05
2022-10-07T17:02:03.224Z,5.85
2022-10-07T17:04:30.446Z,5.40
2022-10-07T17:06:58.442Z,5.35
2022-10-07T17:09:25.633Z,5.53
2022-10-07T17:11:52.809Z,5.82
2022-10-07T17:14:23.051Z,5.18
2022-10-07T17:16:57.310Z,5.82
2022-10-07T17:19:27.331Z,4.80
2022-10-07T17:21:58.569Z,5.55
2022-10-07T17:24:25.793Z,5.82
2022-10-07T17:26:53.509Z,5.63
2022-10-07T17:29:26.206Z,4.82
2022-10-07T17:31:53.869Z,6.00
2022-10-07T17:34:22.542Z,5.82
2022-10-07T17:36:50.495Z,6.00
2022-10-07T17:39:21.487Z,5.95
2022-10-07T17:41:52.038Z,6.30
2022-10-07T17:44:20.863Z,5.63
2022-10-07T17:46:51.143Z,5.88
2022-10-07T17:49:18.349Z,6.05
2022-10-07T17:51:45.432Z,5.90
2022-10-07T17:54:14.327Z,6.85
2022-10-07T17:56:43.437Z,6.55
2022-10-07T17:59:10.634Z,6.18
2022-10-07T18:01:37.999Z,6.10
2022-10-07T18:04:17.940Z,5.80
2022-10-07T18:06:48.365Z,5.70
2022-10-07T18:09:19.604Z,5.75
2022-10-07T18:12:09.174Z,6.05
2022-10-07T18:17:24.994Z,6.70
2022-10-07T18:19:52.590Z,6.18
2022-10-07T18:22:20.446Z,6.07
2022-10-07T18:24:47.816Z,6.35
2022-10-07T18:27:15.273Z,5.95
2022-10-07T18:29:44.159Z,5.97
2022-10-07T18:32:11.354Z,6.47
2022-10-07T18:34:39.172Z,6.50
2022-10-07T18:37:06.494Z,6.35
2022-10-07T18:39:33.796Z,6.97
2022-10-07T18:42:01.291Z,6.47
2022-10-07T18:44:29.338Z,6.20
2022-10-07T18:46:58.810Z,6.05
2022-10-07T18:49:30.800Z,6.43
2022-10-07T18:52:02.133Z,6.53
2022-10-07T18:54:33.092Z,6.40
2022-10-07T18:57:04.846Z,6.97
2022-10-07T18:59:33.222Z,6.30
2022-10-07T19:02:05.679Z,6.88
2022-10-07T19:04:34.224Z,6.03
2022-10-07T19:07:12.277Z,6.72
2022-10-07T19:09:45.120Z,6.53
2022-10-07T19:12:35.152Z,7.00
2022-10-07T19:15:04.281Z,6.60
2022-10-07T19:20:18.156Z,6.80
2022-10-07T19:22:45.405Z,6.40
2022-10-07T19:25:31.068Z,7.25
2022-10-07T19:27:58.250Z,7.25
2022-10-07T19:30:28.797Z,7.07
2022-10-07T19:32:58.965Z,7.78
2022-10-07T19:35:25.996Z,7.35
2022-10-07T19:37:54.514Z,7.43
2022-10-07T19:40:21.865Z,8.25
2022-10-07T19:42:50.370Z,7.50
2022-10-07T19:45:17.580Z,7.32
2022-10-07T19:47:46.342Z,7.88
2022-10-07T19:50:14.697Z,7.55
2022-10-07T19:52:43.513Z,7.88
2022-10-07T19:55:11.702Z,6.97
2022-10-07T19:57:38.967Z,7.63
2022-10-07T20:00:10.298Z,7.55
2022-10-07T20:02:37.539Z,7.40
2022-10-07T20:05:08.588Z,8.43
2022-10-07T20:07:36.352Z,7.75
2022-10-07T20:10:04.463Z,8.48
2022-10-07T20:12:37.104Z,8.18
2022-10-07T20:15:04.664Z,8.98
2022-10-07T20:17:31.839Z,8.13
2022-10-07T20:19:59.121Z,8.43
2022-10-07T20:22:26.571Z,8.48
2022-10-07T20:24:53.646Z,9.25
2022-10-07T20:27:21.690Z,8.63
2022-10-07T20:29:57.827Z,8.90
2022-10-07T20:32:34.025Z,8.70
2022-10-07T20:35:06.866Z,8.82
2022-10-07T20:37:34.119Z,8.60
2022-10-07T20:40:20.077Z,8.60
2022-10-07T20:42:47.281Z,8.48
2022-10-07T20:45:17.655Z,8.55
2022-10-07T20:47:46.345Z,8.73
2022-10-07T20:50:14.187Z,9.35
2022-10-07T20:52:41.490Z,8.93
2022-10-07T20:55:14.252Z,8.18
2022-10-07T20:57:41.898Z,9.27
2022-10-07T21:00:16.214Z,8.68
2022-10-07T21:02:47.311Z,8.73
2022-10-07T21:05:14.858Z,9.02
2022-10-07T21:07:42.912Z,8.68
2022-10-07T21:10:19.696Z,9.18
2022-10-07T21:12:47.180Z,9.90
2022-10-07T21:15:19.335Z,9.57
2022-10-07T21:17:48.815Z,8.73
2022-10-07T21:20:15.948Z,9.07
2022-10-07T21:22:43.337Z,8.70
2022-10-07T21:25:13.039Z,8.45
2022-10-07T21:27:40.104Z,9.75
2022-10-07T21:30:08.336Z,9.25
2022-10-07T21:32:35.430Z,9.27
2022-10-07T21:35:02.556Z,9.80
2022-10-07T21:37:33.071Z,8.68
2022-10-07T21:40:00.275Z,9.30
2022-10-07T21:42:30.243Z,10.13
2022-10-07T21:45:00.368Z,9.02
2022-10-07T21:47:27.579Z,9.30
2022-10-07T21:49:58.026Z,9.90
2022-10-07T21:52:25.205Z,8.93
2022-10-07T21:54:56.159Z,9.27
2022-10-07T21:57:23.712Z,9.35
2022-10-07T21:59:52.260Z,9.00
2022-10-07T22:02:19.995Z,9.82
2022-10-07T22:04:50.556Z,9.40
2022-10-07T22:07:36.199Z,9.13
2022-10-07T22:10:03.832Z,9.38
2022-10-07T22:12:34.016Z,9.90
2022-10-07T22:15:01.102Z,10.82
2022-10-07T22:17:28.301Z,9.88
2022-10-07T22:19:55.674Z,9.50
2022-10-07T22:22:26.073Z,10.23
2022-10-07T22:24:53.638Z,9.43
2022-10-07T22:27:25.193Z,10.43
2022-10-07T22:29:52.289Z,10.57
2022-10-07T22:32:22.906Z,10.65
2022-10-07T22:35:08.714Z,10.02
2022-10-07T22:37:35.949Z,10.48
2022-10-07T22:40:03.291Z,10.40
2022-10-07T22:42:35.414Z,9.73
2022-10-07T22:45:02.630Z,9.88
2022-10-07T22:47:30.175Z,9.43
2022-10-07T22:49:57.710Z,9.23
2022-10-07T22:52:25.253Z,9.98
2022-10-07T22:54:55.311Z,9.48
2022-10-07T22:57:23.431Z,10.13
2022-10-07T22:59:51.090Z,9.68
2022-10-07T23:02:18.318Z,9.25
2022-10-07T23:04:46.281Z,9.25
2022-10-07T23:07:13.688Z,10.05
2022-10-07T23:09:44.287Z,10.07
2022-10-07T23:12:11.428Z,10.52
2022-10-07T23:14:38.496Z,10.88
2022-10-07T23:17:05.640Z,10.88
2022-10-07T23:19:32.953Z,10.85
2022-10-07T23:22:00.304Z,10.52
2022-10-07T23:24:28.416Z,10.75
2022-10-07T23:26:55.422Z,10.80
2022-10-07T23:29:23.063Z,10.52
2022-10-07T23:31:53.211Z,10.13
2022-10-07T23:34:20.239Z,10.25
2022-10-07T23:36:47.315Z,11.30
2022-10-07T23:39:14.959Z,11.18
2022-10-07T23:41:42.282Z,11.50
2022-10-07T23:44:09.327Z,10.52
2022-10-07T23:46:36.677Z,11.65
2022-10-07T23:49:04.544Z,10.70
2022-10-07T23:51:35.189Z,10.70
2022-10-07T23:54:03.986Z,10.82
2022-10-07T23:56:32.421Z,10.63
2022-10-07T23:59:00.583Z,10.60
